Belmonte Quifes — EB2760 — position and weather

sailwx.info

Track history (hours):
 
Tides and Currents Weather Stations Pressure Air Temp Water Temp Dewpoint Dewpoint Depression Visibility Wind Speed Wind Dir Waves Ship Positions

Belmonte Quifes

Last reported at 2017-Oct-07 20:54 UTC. Time now 2017-Oct-22 22:54 UTC.
Position N 37°57' W 000°39'.
Warning: this ship's position is 15 days out of date.

Length 11 m.

Type: Fishing. MMSI: 224432460.

Date/timePositionNaut miles runAvg speedWind from/ knotsBaromVisibWave heightAir tempDewpointWater temp
2017-Oct-07 20:54N 37°57' W 000°39'2 5.0
2017-Oct-07 20:30N 37°58' W 000°41'0 0.9
2017-Oct-07 20:00N 37°58' W 000°41'0 0.0
2017-Oct-07 19:30N 37°58' W 000°41'0 0.0
2017-Oct-07 19:00N 37°58' W 000°41'0 0.0
2017-Oct-07 18:27N 37°58' W 000°41'0 0.0
2017-Oct-07 17:57N 37°58' W 000°41'0 0.0
2017-Oct-07 17:24N 37°58' W 000°41'0 0.0
2017-Oct-07 16:54N 37°58' W 000°41'0 0.0
2017-Oct-07 16:27N 37°58' W 000°41'0 0.0
2017-Oct-07 15:57N 37°58' W 000°41'0 0.0
2017-Oct-06 21:36N 37°58' W 000°41'0 0.0
2017-Oct-06 21:27N 37°58' W 000°41'0 0.0
2017-Oct-06 21:00N 37°58' W 000°41'0 0.0
2017-Oct-06 20:30N 37°58' W 000°41'0 0.0
2017-Oct-06 19:57N 37°58' W 000°41'0 0.0
2017-Oct-06 19:27N 37°58' W 000°41'0 0.0
2017-Oct-06 18:42N 37°58' W 000°41'0 0.0
2017-Oct-06 18:24N 37°58' W 000°41'0 0.0
2017-Oct-06 17:54N 37°58' W 000°41'0 0.0
2017-Oct-06 17:30N 37°58' W 000°41'0 0.0
2017-Oct-06 16:57N 37°58' W 000°41'0 0.0
2017-Oct-06 16:18N 37°58' W 000°41'0 0.0
2017-Oct-06 15:54N 37°58' W 000°41'0 0.0
2017-Oct-06 15:27N 37°58' W 000°41'0 0.0
2017-Oct-06 15:00N 37°58' W 000°41'0 0.0
2017-Oct-06 14:30N 37°58' W 000°41'0 0.0
2017-Oct-06 14:00N 37°58' W 000°41'0 0.0
2017-Oct-06 13:30N 37°58' W 000°41'0 0.0
2017-Oct-06 13:00N 37°58' W 000°41'0 0.0
2017-Oct-06 12:30N 37°58' W 000°41'0 0.0
2017-Oct-06 11:27N 37°58' W 000°41'0 0.0
2017-Oct-06 10:57N 37°58' W 000°41'0 0.0
2017-Oct-06 10:24N 37°58' W 000°41'0 0.0
2017-Oct-06 09:54N 37°58' W 000°41'0 0.0
2017-Oct-06 09:30N 37°58' W 000°41'0 0.0
2017-Oct-06 08:54N 37°58' W 000°41'0 0.0
2017-Oct-06 08:27N 37°58' W 000°41'0 1.0
2017-Oct-06 08:00N 37°58' W 000°41'  
2017-Oct-02 19:23N 39°27' E 002°34'2 6.4
2017-Oct-02 19:00N 39°29' E 002°36'3 6.5
2017-Oct-02 18:30N 39°32' E 002°38'2 4.0
2017-Oct-02 18:00N 39°34' E 002°38'0 0.0
2017-Oct-02 17:30N 39°34' E 002°38'0 0.0
2017-Oct-02 17:00N 39°34' E 002°38'0 0.0
2017-Oct-02 16:30N 39°34' E 002°38'0 0.0
2017-Oct-02 16:00N 39°34' E 002°38'0 0.0
2017-Oct-02 15:30N 39°34' E 002°38'0 0.0
2017-Oct-02 15:00N 39°34' E 002°38'0 0.0
2017-Oct-02 14:30N 39°34' E 002°38'0 0.1
2017-Oct-02 13:59N 39°34' E 002°38'0 0.0
2017-Oct-02 13:29N 39°34' E 002°38'0 0.0
2017-Oct-02 12:59N 39°34' E 002°38'0 0.0
2017-Oct-02 12:28N 39°34' E 002°38'0 0.0
2017-Oct-02 11:58N 39°34' E 002°38'0 0.0
2017-Oct-02 11:30N 39°34' E 002°38'3 6.0
2017-Oct-02 11:00N 39°31' E 002°37'  
Track history (hours):
 
Tides and Currents Weather Stations Pressure Air Temp Water Temp Dewpoint Dewpoint Depression Visibility Wind Speed Wind Dir Waves Ship Positions

Belmonte Quifes

Last reported at 2017-Oct-07 20:54 UTC. Time now 2017-Oct-22 22:54 UTC.
Position N 37°57' W 000°39'.
Warning: this ship's position is 15 days out of date.

Length 11 m.

Type: Fishing. MMSI: 224432460.

Date/timePositionNaut miles runAvg speedWind from/ knotsBaromVisibWave heightAir tempDewpointWater temp
2017-Oct-07 20:54N 37°57' W 000°39'2 5.0
2017-Oct-07 20:30N 37°58' W 000°41'0 0.9
2017-Oct-07 20:00N 37°58' W 000°41'0 0.0
2017-Oct-07 19:30N 37°58' W 000°41'0 0.0
2017-Oct-07 19:00N 37°58' W 000°41'0 0.0
2017-Oct-07 18:27N 37°58' W 000°41'0 0.0
2017-Oct-07 17:57N 37°58' W 000°41'0 0.0
2017-Oct-07 17:24N 37°58' W 000°41'0 0.0
2017-Oct-07 16:54N 37°58' W 000°41'0 0.0
2017-Oct-07 16:27N 37°58' W 000°41'0 0.0
2017-Oct-07 15:57N 37°58' W 000°41'0 0.0
2017-Oct-06 21:36N 37°58' W 000°41'0 0.0
2017-Oct-06 21:27N 37°58' W 000°41'0 0.0
2017-Oct-06 21:00N 37°58' W 000°41'0 0.0
2017-Oct-06 20:30N 37°58' W 000°41'0 0.0
2017-Oct-06 19:57N 37°58' W 000°41'0 0.0
2017-Oct-06 19:27N 37°58' W 000°41'0 0.0
2017-Oct-06 18:42N 37°58' W 000°41'0 0.0
2017-Oct-06 18:24N 37°58' W 000°41'0 0.0
2017-Oct-06 17:54N 37°58' W 000°41'0 0.0
2017-Oct-06 17:30N 37°58' W 000°41'0 0.0
2017-Oct-06 16:57N 37°58' W 000°41'0 0.0
2017-Oct-06 16:18N 37°58' W 000°41'0 0.0
2017-Oct-06 15:54N 37°58' W 000°41'0 0.0
2017-Oct-06 15:27N 37°58' W 000°41'0 0.0
2017-Oct-06 15:00N 37°58' W 000°41'0 0.0
2017-Oct-06 14:30N 37°58' W 000°41'0 0.0
2017-Oct-06 14:00N 37°58' W 000°41'0 0.0
2017-Oct-06 13:30N 37°58' W 000°41'0 0.0
2017-Oct-06 13:00N 37°58' W 000°41'0 0.0
2017-Oct-06 12:30N 37°58' W 000°41'0 0.0
2017-Oct-06 11:27N 37°58' W 000°41'0 0.0
2017-Oct-06 10:57N 37°58' W 000°41'0 0.0
2017-Oct-06 10:24N 37°58' W 000°41'0 0.0
2017-Oct-06 09:54N 37°58' W 000°41'0 0.0
2017-Oct-06 09:30N 37°58' W 000°41'0 0.0
2017-Oct-06 08:54N 37°58' W 000°41'0 0.0
2017-Oct-06 08:27N 37°58' W 000°41'0 1.0
2017-Oct-06 08:00N 37°58' W 000°41'  
2017-Oct-02 19:23N 39°27' E 002°34'2 6.4
2017-Oct-02 19:00N 39°29' E 002°36'3 6.5
2017-Oct-02 18:30N 39°32' E 002°38'2 4.0
2017-Oct-02 18:00N 39°34' E 002°38'0 0.0
2017-Oct-02 17:30N 39°34' E 002°38'0 0.0
2017-Oct-02 17:00N 39°34' E 002°38'0 0.0
2017-Oct-02 16:30N 39°34' E 002°38'0 0.0
2017-Oct-02 16:00N 39°34' E 002°38'0 0.0
2017-Oct-02 15:30N 39°34' E 002°38'0 0.0
2017-Oct-02 15:00N 39°34' E 002°38'0 0.0
2017-Oct-02 14:30N 39°34' E 002°38'0 0.1
2017-Oct-02 13:59N 39°34' E 002°38'0 0.0
2017-Oct-02 13:29N 39°34' E 002°38'0 0.0
2017-Oct-02 12:59N 39°34' E 002°38'0 0.0
2017-Oct-02 12:28N 39°34' E 002°38'0 0.0
2017-Oct-02 11:58N 39°34' E 002°38'0 0.0
2017-Oct-02 11:30N 39°34' E 002°38'3 6.0
2017-Oct-02 11:00N 39°31' E 002°37'  

Dump ship's entire track history